sensor_id;sensor_type;location;lat;lon;timestamp;pressure;altitude;pressure_sealevel;temperature;humidity
83122;BME280;73002;47.238;9.006;2024-02-15T00:12:32;95438.13;;;11.59;43.36
83122;BME280;73002;47.238;9.006;2024-02-15T00:38:04;95442.72;;;11.19;44.76
83122;BME280;73002;47.238;9.006;2024-02-15T00:40:30;95430.84;;;11.40;44.09
83122;BME280;73002;47.238;9.006;2024-02-15T00:42:56;95440.09;;;11.57;44.26
83122;BME280;73002;47.238;9.006;2024-02-15T00:45:25;95435.13;;;11.32;44.81
83122;BME280;73002;47.238;9.006;2024-02-15T00:52:50;95430.00;;;11.24;44.30
83122;BME280;73002;47.238;9.006;2024-02-15T00:55:16;95435.41;;;11.38;44.09
83122;BME280;73002;47.238;9.006;2024-02-15T00:57:41;95433.03;;;11.13;44.65
83122;BME280;73002;47.238;9.006;2024-02-15T01:02:42;95435.91;;;11.56;43.63
83122;BME280;73002;47.238;9.006;2024-02-15T01:05:07;95439.91;;;11.44;44.04
83122;BME280;73002;47.238;9.006;2024-02-15T01:07:35;95441.53;;;11.45;43.82
83122;BME280;73002;47.238;9.006;2024-02-15T01:10:00;95431.34;;;11.20;43.87
83122;BME280;73002;47.238;9.006;2024-02-15T01:12:26;95428.53;;;11.07;43.99
83122;BME280;73002;47.238;9.006;2024-02-15T01:20:04;95427.06;;;11.42;43.43
83122;BME280;73002;47.238;9.006;2024-02-15T01:22:31;95445.84;;;11.38;43.80
83122;BME280;73002;47.238;9.006;2024-02-15T01:40:18;95430.44;;;10.90;45.50
83122;BME280;73002;47.238;9.006;2024-02-15T01:42:47;95429.81;;;10.65;45.70
83122;BME280;73002;47.238;9.006;2024-02-15T01:45:15;95425.00;;;10.76;45.55
83122;BME280;73002;47.238;9.006;2024-02-15T01:47:43;95428.63;;;10.67;45.72
83122;BME280;73002;47.238;9.006;2024-02-15T01:57:44;95415.13;;;10.72;46.19
83122;BME280;73002;47.238;9.006;2024-02-15T02:00:14;95406.47;;;10.94;45.43
83122;BME280;73002;47.238;9.006;2024-02-15T02:02:41;95417.31;;;11.06;45.44
83122;BME280;73002;47.238;9.006;2024-02-15T02:07:37;95425.50;;;11.18;44.97
83122;BME280;73002;47.238;9.006;2024-02-15T02:10:03;95432.88;;;10.91;45.72
83122;BME280;73002;47.238;9.006;2024-02-15T02:15:06;95419.22;;;11.12;45.58
83122;BME280;73002;47.238;9.006;2024-02-15T02:17:32;95424.50;;;11.04;45.73
83122;BME280;73002;47.238;9.006;2024-02-15T02:19:59;95420.47;;;11.17;45.65
83122;BME280;73002;47.238;9.006;2024-02-15T02:22:24;95416.56;;;10.98;46.29
83122;BME280;73002;47.238;9.006;2024-02-15T02:25:06;95411.00;;;10.54;47.13
83122;BME280;73002;47.238;9.006;2024-02-15T02:27:36;95416.97;;;10.63;47.01
83122;BME280;73002;47.238;9.006;2024-02-15T02:30:12;95411.06;;;10.46;47.36
83122;BME280;73002;47.238;9.006;2024-02-15T02:32:41;95419.41;;;10.65;46.91
83122;BME280;73002;47.238;9.006;2024-02-15T02:35:06;95408.84;;;10.35;47.11
83122;BME280;73002;47.238;9.006;2024-02-15T02:37:41;95405.53;;;10.10;48.00
83122;BME280;73002;47.238;9.006;2024-02-15T02:46:31;95405.91;;;10.38;47.71
83122;BME280;73002;47.238;9.006;2024-02-15T02:48:57;95385.63;;;9.94;48.67
83122;BME280;73002;47.238;9.006;2024-02-15T02:51:22;95394.81;;;10.44;47.45
83122;BME280;73002;47.238;9.006;2024-02-15T02:53:48;95383.19;;;10.24;47.80
83122;BME280;73002;47.238;9.006;2024-02-15T02:56:13;95401.91;;;10.50;47.32
83122;BME280;73002;47.238;9.006;2024-02-15T03:09:00;95382.44;;;10.46;47.79
83122;BME280;73002;47.238;9.006;2024-02-15T03:11:26;95389.31;;;10.62;47.57
83122;BME280;73002;47.238;9.006;2024-02-15T03:13:52;95374.66;;;10.69;47.45
83122;BME280;73002;47.238;9.006;2024-02-15T03:18:43;95365.03;;;10.47;47.60
83122;BME280;73002;47.238;9.006;2024-02-15T03:21:09;95377.56;;;10.51;47.64
83122;BME280;73002;47.238;9.006;2024-02-15T03:23:36;95380.09;;;10.60;47.56
83122;BME280;73002;47.238;9.006;2024-02-15T03:26:07;95369.91;;;10.50;47.41
83122;BME280;73002;47.238;9.006;2024-02-15T03:28:33;95375.75;;;10.52;47.48
83122;BME280;73002;47.238;9.006;2024-02-15T03:31:02;95382.97;;;10.65;47.29
83122;BME280;73002;47.238;9.006;2024-02-15T03:33:27;95377.56;;;10.51;47.45
83122;BME280;73002;47.238;9.006;2024-02-15T03:35:58;95379.91;;;10.30;47.99
83122;BME280;73002;47.238;9.006;2024-02-15T03:38:28;95363.31;;;10.39;47.42
83122;BME280;73002;47.238;9.006;2024-02-15T03:40:55;95364.81;;;10.33;47.99
83122;BME280;73002;47.238;9.006;2024-02-15T03:43:21;95370.56;;;10.21;48.07
83122;BME280;73002;47.238;9.006;2024-02-15T03:48:23;95365.69;;;10.17;48.20
83122;BME280;73002;47.238;9.006;2024-02-15T03:50:49;95364.41;;;10.45;47.53
83122;BME280;73002;47.238;9.006;2024-02-15T03:53:14;95353.47;;;10.26;47.84
83122;BME280;73002;47.238;9.006;2024-02-15T03:55:42;95368.25;;;10.57;47.23
83122;BME280;73002;47.238;9.006;2024-02-15T04:05:45;95361.00;;;10.44;47.20
83122;BME280;73002;47.238;9.006;2024-02-15T04:08:10;95363.44;;;10.14;47.93
83122;BME280;73002;47.238;9.006;2024-02-15T04:10:37;95366.00;;;10.23;47.56
83122;BME280;73002;47.238;9.006;2024-02-15T04:13:04;95355.50;;;10.39;47.41
83122;BME280;73002;47.238;9.006;2024-02-15T04:17:55;95361.59;;;10.54;46.38
83122;BME280;73002;47.238;9.006;2024-02-15T04:20:22;95351.47;;;10.60;46.43
83122;BME280;73002;47.238;9.006;2024-02-15T04:22:47;95351.06;;;10.48;46.32
83122;BME280;73002;47.238;9.006;2024-02-15T04:25:15;95360.31;;;10.50;47.14
83122;BME280;73002;47.238;9.006;2024-02-15T04:37:56;95356.38;;;10.54;46.00
83122;BME280;73002;47.238;9.006;2024-02-15T04:40:25;95354.84;;;10.45;45.93
83122;BME280;73002;47.238;9.006;2024-02-15T04:55:46;95361.94;;;9.89;47.56
83122;BME280;73002;47.238;9.006;2024-02-15T05:03:05;95351.41;;;9.43;49.34
83122;BME280;73002;47.238;9.006;2024-02-15T05:10:36;95356.13;;;9.31;49.23
83122;BME280;73002;47.238;9.006;2024-02-15T05:13:05;95360.19;;;9.33;48.77
83122;BME280;73002;47.238;9.006;2024-02-15T05:15:30;95342.97;;;9.32;48.53
83122;BME280;73002;47.238;9.006;2024-02-15T05:20:32;95342.34;;;9.78;47.94
83122;BME280;73002;47.238;9.006;2024-02-15T05:23:02;95347.25;;;9.73;47.84
83122;BME280;73002;47.238;9.006;2024-02-15T05:25:28;95345.97;;;10.00;47.22
83122;BME280;73002;47.238;9.006;2024-02-15T05:27:55;95338.81;;;10.02;47.33
83122;BME280;73002;47.238;9.006;2024-02-15T05:45:41;95325.78;;;10.10;46.23
83122;BME280;73002;47.238;9.006;2024-02-15T05:48:08;95323.53;;;10.07;46.20
83122;BME280;73002;47.238;9.006;2024-02-15T05:50:34;95331.69;;;10.27;45.89
83122;BME280;73002;47.238;9.006;2024-02-15T05:52:59;95327.78;;;10.00;46.13
83122;BME280;73002;47.238;9.006;2024-02-15T05:57:52;95330.03;;;10.03;46.38
83122;BME280;73002;47.238;9.006;2024-02-15T06:00:19;95336.75;;;9.89;46.24
83122;BME280;73002;47.238;9.006;2024-02-15T06:02:44;95336.69;;;10.06;45.91
83122;BME280;73002;47.238;9.006;2024-02-15T06:05:10;95338.41;;;9.90;46.17
83122;BME280;73002;47.238;9.006;2024-02-15T06:07:38;95328.25;;;10.04;45.95
83122;BME280;73002;47.238;9.006;2024-02-15T06:10:05;95333.94;;;10.07;45.94
83122;BME280;73002;47.238;9.006;2024-02-15T06:12:32;95342.84;;;10.05;46.08
83122;BME280;73002;47.238;9.006;2024-02-15T06:14:58;95324.19;;;10.01;46.21
83122;BME280;73002;47.238;9.006;2024-02-15T06:17:26;95330.28;;;9.54;46.72
83122;BME280;73002;47.238;9.006;2024-02-15T06:19:54;95327.13;;;9.67;46.98
83122;BME280;73002;47.238;9.006;2024-02-15T06:22:20;95333.63;;;9.63;47.09
83122;BME280;73002;47.238;9.006;2024-02-15T06:30:23;95319.25;;;10.14;45.83
83122;BME280;73002;47.238;9.006;2024-02-15T06:33:15;95310.34;;;10.09;45.95
83122;BME280;73002;47.238;9.006;2024-02-15T06:36:04;95315.84;;;10.14;45.26
83122;BME280;73002;47.238;9.006;2024-02-15T06:38:48;95316.88;;;10.28;44.56
83122;BME280;73002;47.238;9.006;2024-02-15T06:41:35;95320.81;;;10.32;44.13
83122;BME280;73002;47.238;9.006;2024-02-15T06:44:01;95313.41;;;10.44;44.17
83122;BME280;73002;47.238;9.006;2024-02-15T06:51:37;95299.03;;;10.71;42.95
83122;BME280;73002;47.238;9.006;2024-02-15T06:54:06;95299.25;;;10.84;42.99
83122;BME280;73002;47.238;9.006;2024-02-15T06:56:36;95314.59;;;10.94;43.00
83122;BME280;73002;47.238;9.006;2024-02-15T06:59:05;95296.97;;;10.81;43.32
83122;BME280;73002;47.238;9.006;2024-02-15T07:09:08;95307.38;;;10.43;43.59
83122;BME280;73002;47.238;9.006;2024-02-15T07:11:36;95315.75;;;9.99;45.66
83122;BME280;73002;47.238;9.006;2024-02-15T07:14:02;95302.13;;;10.51;44.95
83122;BME280;73002;47.238;9.006;2024-02-15T07:16:31;95307.56;;;10.65;44.65
83122;BME280;73002;47.238;9.006;2024-02-15T07:19:00;95303.00;;;10.96;43.92
83122;BME280;73002;47.238;9.006;2024-02-15T07:21:25;95312.09;;;11.01;44.84
83122;BME280;73002;47.238;9.006;2024-02-15T07:23:55;95317.06;;;11.25;43.50
83122;BME280;73002;47.238;9.006;2024-02-15T07:26:25;95312.72;;;11.62;43.48
83122;BME280;73002;47.238;9.006;2024-02-15T07:28:54;95299.16;;;11.67;42.41
83122;BME280;73002;47.238;9.006;2024-02-15T07:31:20;95293.19;;;12.03;42.32
83122;BME280;73002;47.238;9.006;2024-02-15T07:33:50;95304.75;;;12.37;41.42
83122;BME280;73002;47.238;9.006;2024-02-15T07:36:20;95302.41;;;12.91;40.29
83122;BME280;73002;47.238;9.006;2024-02-15T07:38:50;95314.53;;;14.17;38.53
83122;BME280;73002;47.238;9.006;2024-02-15T07:41:17;95294.25;;;15.33;35.89
83122;BME280;73002;47.238;9.006;2024-02-15T07:43:45;95286.16;;;16.95;33.52
83122;BME280;73002;47.238;9.006;2024-02-15T08:33:51;95224.84;;;22.13;25.71
83122;BME280;73002;47.238;9.006;2024-02-15T08:38:46;95219.13;;;21.33;26.13
83122;BME280;73002;47.238;9.006;2024-02-15T08:41:12;95213.72;;;21.05;27.04
83122;BME280;73002;47.238;9.006;2024-02-15T08:54:00;95203.88;;;22.38;25.74
83122;BME280;73002;47.238;9.006;2024-02-15T08:56:26;95192.03;;;22.46;25.98
83122;BME280;73002;47.238;9.006;2024-02-15T08:58:54;95183.66;;;22.00;26.87
83122;BME280;73002;47.238;9.006;2024-02-15T09:01:19;95186.25;;;22.22;26.49
83122;BME280;73002;47.238;9.006;2024-02-15T09:14:56;95157.97;;;22.60;27.37
83122;BME280;73002;47.238;9.006;2024-02-15T09:17:22;95157.31;;;22.90;26.93
83122;BME280;73002;47.238;9.006;2024-02-15T09:19:48;95161.63;;;23.44;25.54
83122;BME280;73002;47.238;9.006;2024-02-15T09:27:26;95151.53;;;22.93;26.60
83122;BME280;73002;47.238;9.006;2024-02-15T09:29:52;95144.25;;;22.73;27.38
83122;BME280;73002;47.238;9.006;2024-02-15T09:32:17;95139.84;;;22.47;26.04
83122;BME280;73002;47.238;9.006;2024-02-15T09:34:43;95144.41;;;21.70;26.49
83122;BME280;73002;47.238;9.006;2024-02-15T09:37:11;95150.44;;;21.21;27.89
83122;BME280;73002;47.238;9.006;2024-02-15T09:42:04;95145.84;;;21.33;27.53
83122;BME280;73002;47.238;9.006;2024-02-15T09:44:29;95143.75;;;20.57;29.19
83122;BME280;73002;47.238;9.006;2024-02-15T09:47:05;95133.34;;;20.67;29.10
83122;BME280;73002;47.238;9.006;2024-02-15T09:49:35;95130.44;;;20.64;29.89
83122;BME280;73002;47.238;9.006;2024-02-15T09:54:26;95112.56;;;20.37;29.37
83122;BME280;73002;47.238;9.006;2024-02-15T09:56:52;95126.88;;;20.58;29.41
83122;BME280;73002;47.238;9.006;2024-02-15T09:59:19;95118.09;;;20.02;30.76
83122;BME280;73002;47.238;9.006;2024-02-15T10:01:47;95120.09;;;20.11;30.32
83122;BME280;73002;47.238;9.006;2024-02-15T10:04:13;95106.97;;;19.71;30.28
83122;BME280;73002;47.238;9.006;2024-02-15T10:06:42;95117.75;;;19.69;30.40
83122;BME280;73002;47.238;9.006;2024-02-15T10:09:43;95115.81;;;19.36;30.81
83122;BME280;73002;47.238;9.006;2024-02-15T10:12:08;95112.69;;;19.51;30.22
83122;BME280;73002;47.238;9.006;2024-02-15T10:14:35;95112.16;;;19.37;31.17
83122;BME280;73002;47.238;9.006;2024-02-15T10:17:07;95120.91;;;19.26;32.90
83122;BME280;73002;47.238;9.006;2024-02-15T10:19:40;95112.09;;;19.20;31.40
83122;BME280;73002;47.238;9.006;2024-02-15T10:22:10;95112.81;;;19.04;32.34
83122;BME280;73002;47.238;9.006;2024-02-15T10:24:38;95110.31;;;19.09;31.38
83122;BME280;73002;47.238;9.006;2024-02-15T10:27:05;95098.66;;;18.93;32.27
83122;BME280;73002;47.238;9.006;2024-02-15T10:29:36;95115.72;;;18.79;32.11
83122;BME280;73002;47.238;9.006;2024-02-15T10:34:44;95118.72;;;18.59;32.69
83122;BME280;73002;47.238;9.006;2024-02-15T10:37:14;95116.31;;;18.81;32.83
83122;BME280;73002;47.238;9.006;2024-02-15T10:39:42;95116.09;;;18.47;32.81
83122;BME280;73002;47.238;9.006;2024-02-15T10:42:08;95110.13;;;18.63;33.68
83122;BME280;73002;47.238;9.006;2024-02-15T10:44:36;95104.81;;;18.75;32.93
83122;BME280;73002;47.238;9.006;2024-02-15T10:49:52;95094.06;;;18.88;32.92
83122;BME280;73002;47.238;9.006;2024-02-15T10:52:19;95104.34;;;19.02;32.79
83122;BME280;73002;47.238;9.006;2024-02-15T10:54:53;95114.44;;;19.05;33.75
83122;BME280;73002;47.238;9.006;2024-02-15T10:57:25;95110.19;;;19.16;33.26
83122;BME280;73002;47.238;9.006;2024-02-15T10:59:58;95098.09;;;18.79;34.88
83122;BME280;73002;47.238;9.006;2024-02-15T11:02:28;95102.16;;;19.10;33.80
83122;BME280;73002;47.238;9.006;2024-02-15T11:05:16;95104.41;;;19.19;33.40
83122;BME280;73002;47.238;9.006;2024-02-15T11:07:46;95104.31;;;19.54;31.85
83122;BME280;73002;47.238;9.006;2024-02-15T11:10:12;95101.75;;;19.30;33.10
83122;BME280;73002;47.238;9.006;2024-02-15T11:12:42;95101.28;;;19.33;34.53
83122;BME280;73002;47.238;9.006;2024-02-15T11:15:09;95087.63;;;19.37;32.17
83122;BME280;73002;47.238;9.006;2024-02-15T11:20:03;95103.97;;;19.50;32.34
83122;BME280;73002;47.238;9.006;2024-02-15T11:22:34;95104.16;;;19.32;32.79
83122;BME280;73002;47.238;9.006;2024-02-15T11:25:03;95105.56;;;19.23;32.46
83122;BME280;73002;47.238;9.006;2024-02-15T11:27:37;95099.41;;;19.05;32.59
83122;BME280;73002;47.238;9.006;2024-02-15T11:32:48;95100.38;;;18.64;32.37
83122;BME280;73002;47.238;9.006;2024-02-15T11:35:24;95106.91;;;18.61;34.27
83122;BME280;73002;47.238;9.006;2024-02-15T11:37:57;95095.78;;;18.83;32.45
83122;BME280;73002;47.238;9.006;2024-02-15T11:43:48;95090.78;;;18.34;33.39
83122;BME280;73002;47.238;9.006;2024-02-15T11:46:21;95074.28;;;18.15;33.91
83122;BME280;73002;47.238;9.006;2024-02-15T11:48:50;95073.63;;;18.43;32.88
83122;BME280;73002;47.238;9.006;2024-02-15T11:59:09;95064.00;;;18.49;34.92
83122;BME280;73002;47.238;9.006;2024-02-15T12:01:44;95070.84;;;18.50;35.10
83122;BME280;73002;47.238;9.006;2024-02-15T12:07:02;95072.97;;;18.88;34.14
83122;BME280;73002;47.238;9.006;2024-02-15T12:09:46;95065.09;;;18.65;34.36
83122;BME280;73002;47.238;9.006;2024-02-15T12:12:34;95072.31;;;18.69;33.85
83122;BME280;73002;47.238;9.006;2024-02-15T12:15:18;95051.41;;;18.51;33.90
83122;BME280;73002;47.238;9.006;2024-02-15T12:20:40;95077.69;;;18.74;34.92
83122;BME280;73002;47.238;9.006;2024-02-15T12:23:06;95068.88;;;18.69;35.07
83122;BME280;73002;47.238;9.006;2024-02-15T12:25:33;95065.34;;;18.63;32.84
83122;BME280;73002;47.238;9.006;2024-02-15T12:27:59;95076.94;;;19.14;32.77
83122;BME280;73002;47.238;9.006;2024-02-15T12:30:26;95064.56;;;18.51;33.73
83122;BME280;73002;47.238;9.006;2024-02-15T12:33:09;95057.91;;;18.48;34.63
83122;BME280;73002;47.238;9.006;2024-02-15T12:35:36;95061.75;;;18.69;34.14
83122;BME280;73002;47.238;9.006;2024-02-15T12:38:02;95047.00;;;18.68;34.14
83122;BME280;73002;47.238;9.006;2024-02-15T12:40:35;95055.50;;;18.59;34.15
83122;BME280;73002;47.238;9.006;2024-02-15T12:43:02;95050.66;;;18.67;35.02
83122;BME280;73002;47.238;9.006;2024-02-15T12:45:31;95059.53;;;18.02;34.46
83122;BME280;73002;47.238;9.006;2024-02-15T12:47:57;95049.94;;;17.54;37.33
83122;BME280;73002;47.238;9.006;2024-02-15T12:50:27;95055.22;;;17.35;36.42
83122;BME280;73002;47.238;9.006;2024-02-15T12:52:53;95040.78;;;17.56;35.76
83122;BME280;73002;47.238;9.006;2024-02-15T12:55:22;95032.69;;;17.28;35.29
83122;BME280;73002;47.238;9.006;2024-02-15T12:57:53;95029.13;;;16.92;36.06
83122;BME280;73002;47.238;9.006;2024-02-15T13:00:22;95036.56;;;16.95;36.29
83122;BME280;73002;47.238;9.006;2024-02-15T13:02:50;95027.53;;;16.54;37.56
83122;BME280;73002;47.238;9.006;2024-02-15T13:05:17;95021.72;;;16.89;36.66
83122;BME280;73002;47.238;9.006;2024-02-15T13:07:47;95010.16;;;16.90;36.63
83122;BME280;73002;47.238;9.006;2024-02-15T13:10:13;94991.00;;;17.01;37.97
83122;BME280;73002;47.238;9.006;2024-02-15T13:12:41;95003.84;;;17.09;35.93
83122;BME280;73002;47.238;9.006;2024-02-15T13:15:08;94983.88;;;17.20;36.82
83122;BME280;73002;47.238;9.006;2024-02-15T13:17:38;94994.00;;;17.47;35.97
83122;BME280;73002;47.238;9.006;2024-02-15T13:20:04;94984.28;;;17.47;36.19
83122;BME280;73002;47.238;9.006;2024-02-15T13:22:37;94981.06;;;17.45;36.41
83122;BME280;73002;47.238;9.006;2024-02-15T13:27:29;94967.13;;;17.45;36.17
83122;BME280;73002;47.238;9.006;2024-02-15T13:29:58;94970.19;;;17.42;36.24
83122;BME280;73002;47.238;9.006;2024-02-15T13:32:24;94970.91;;;17.72;35.78
83122;BME280;73002;47.238;9.006;2024-02-15T13:34:49;94973.13;;;17.87;35.79
83122;BME280;73002;47.238;9.006;2024-02-15T13:37:22;94961.66;;;17.82;35.52
83122;BME280;73002;47.238;9.006;2024-02-15T13:39:49;94950.00;;;17.66;35.50
83122;BME280;73002;47.238;9.006;2024-02-15T13:42:15;94958.47;;;17.68;35.20
83122;BME280;73002;47.238;9.006;2024-02-15T13:44:43;94955.31;;;17.24;35.83
83122;BME280;73002;47.238;9.006;2024-02-15T13:47:13;94953.28;;;17.49;35.65
83122;BME280;73002;47.238;9.006;2024-02-15T13:52:06;94940.34;;;17.24;36.03
83122;BME280;73002;47.238;9.006;2024-02-15T13:54:32;94945.25;;;17.20;37.48
83122;BME280;73002;47.238;9.006;2024-02-15T13:56:59;94951.94;;;17.47;36.58
83122;BME280;73002;47.238;9.006;2024-02-15T13:59:29;94937.06;;;17.52;35.74
83122;BME280;73002;47.238;9.006;2024-02-15T14:04:24;94942.81;;;17.61;35.51
83122;BME280;73002;47.238;9.006;2024-02-15T14:06:53;94950.09;;;17.59;35.38
83122;BME280;73002;47.238;9.006;2024-02-15T14:09:18;94945.31;;;17.56;35.68
83122;BME280;73002;47.238;9.006;2024-02-15T14:11:44;94946.59;;;17.65;35.89
83122;BME280;73002;47.238;9.006;2024-02-15T14:14:10;94943.25;;;17.70;35.47
83122;BME280;73002;47.238;9.006;2024-02-15T14:16:35;94940.06;;;17.68;35.44
83122;BME280;73002;47.238;9.006;2024-02-15T14:19:02;94938.09;;;17.51;35.11
83122;BME280;73002;47.238;9.006;2024-02-15T14:21:29;94938.34;;;17.62;34.50
83122;BME280;73002;47.238;9.006;2024-02-15T14:23:57;94937.38;;;17.32;35.75
83122;BME280;73002;47.238;9.006;2024-02-15T14:26:23;94935.66;;;17.26;35.13
83122;BME280;73002;47.238;9.006;2024-02-15T14:28:52;94936.25;;;17.40;36.03
83122;BME280;73002;47.238;9.006;2024-02-15T14:31:17;94939.00;;;17.45;35.92
83122;BME280;73002;47.238;9.006;2024-02-15T14:34:02;94930.56;;;17.55;36.00
83122;BME280;73002;47.238;9.006;2024-02-15T14:36:27;94928.16;;;17.65;36.93
83122;BME280;73002;47.238;9.006;2024-02-15T14:38:55;94917.75;;;17.58;35.96
83122;BME280;73002;47.238;9.006;2024-02-15T14:44:06;94917.19;;;17.45;37.39
83122;BME280;73002;47.238;9.006;2024-02-15T14:46:33;94919.59;;;17.46;38.72
83122;BME280;73002;47.238;9.006;2024-02-15T14:49:01;94909.28;;;17.21;38.15
83122;BME280;73002;47.238;9.006;2024-02-15T14:51:28;94904.25;;;17.43;38.85
83122;BME280;73002;47.238;9.006;2024-02-15T14:53:53;94907.22;;;17.35;38.17
83122;BME280;73002;47.238;9.006;2024-02-15T14:56:19;94907.44;;;17.22;38.75
83122;BME280;73002;47.238;9.006;2024-02-15T14:58:44;94908.09;;;17.17;38.62
83122;BME280;73002;47.238;9.006;2024-02-15T15:01:13;94909.72;;;17.30;38.89
83122;BME280;73002;47.238;9.006;2024-02-15T15:03:39;94900.22;;;17.17;38.92
83122;BME280;73002;47.238;9.006;2024-02-15T15:06:07;94905.13;;;17.13;38.08
83122;BME280;73002;47.238;9.006;2024-02-15T15:08:51;94888.47;;;17.08;38.46
83122;BME280;73002;47.238;9.006;2024-02-15T15:11:35;94893.31;;;16.92;38.37
83122;BME280;73002;47.238;9.006;2024-02-15T15:14:19;94907.72;;;17.02;37.68
83122;BME280;73002;47.238;9.006;2024-02-15T15:16:44;94894.81;;;17.00;38.90
83122;BME280;73002;47.238;9.006;2024-02-15T15:19:12;94893.78;;;16.89;39.43
83122;BME280;73002;47.238;9.006;2024-02-15T15:24:04;94884.84;;;16.90;39.23
83122;BME280;73002;47.238;9.006;2024-02-15T15:26:34;94896.88;;;16.98;40.74
83122;BME280;73002;47.238;9.006;2024-02-15T15:28:59;94882.72;;;16.99;40.24
83122;BME280;73002;47.238;9.006;2024-02-15T15:31:30;94883.53;;;16.81;40.61
83122;BME280;73002;47.238;9.006;2024-02-15T15:36:31;94886.06;;;17.06;41.20
83122;BME280;73002;47.238;9.006;2024-02-15T15:38:58;94880.53;;;16.96;41.18
83122;BME280;73002;47.238;9.006;2024-02-15T15:41:23;94870.09;;;16.77;41.30
83122;BME280;73002;47.238;9.006;2024-02-15T15:46:24;94879.34;;;16.80;42.13
83122;BME280;73002;47.238;9.006;2024-02-15T15:48:51;94873.28;;;16.79;41.70
83122;BME280;73002;47.238;9.006;2024-02-15T15:56:08;94871.97;;;16.89;42.05
83122;BME280;73002;47.238;9.006;2024-02-15T15:58:33;94878.25;;;16.99;42.32
83122;BME280;73002;47.238;9.006;2024-02-15T16:00:59;94876.34;;;16.76;43.10
83122;BME280;73002;47.238;9.006;2024-02-15T16:03:25;94878.25;;;16.69;43.51
83122;BME280;73002;47.238;9.006;2024-02-15T16:05:51;94856.22;;;16.58;43.43
83122;BME280;73002;47.238;9.006;2024-02-15T16:08:17;94873.47;;;16.66;43.63
83122;BME280;73002;47.238;9.006;2024-02-15T16:10:45;94860.47;;;16.71;42.46
83122;BME280;73002;47.238;9.006;2024-02-15T16:18:21;94876.69;;;16.38;43.94
83122;BME280;73002;47.238;9.006;2024-02-15T16:20:48;94870.50;;;16.32;43.05
83122;BME280;73002;47.238;9.006;2024-02-15T16:23:14;94870.75;;;16.42;42.98
83122;BME280;73002;47.238;9.006;2024-02-15T16:25:39;94867.41;;;16.35;43.54
83122;BME280;73002;47.238;9.006;2024-02-15T16:28:06;94869.56;;;16.08;44.40
83122;BME280;73002;47.238;9.006;2024-02-15T16:30:32;94872.56;;;16.12;44.20
83122;BME280;73002;47.238;9.006;2024-02-15T16:33:00;94867.31;;;16.12;43.76
83122;BME280;73002;47.238;9.006;2024-02-15T16:35:29;94856.97;;;15.98;43.85
83122;BME280;73002;47.238;9.006;2024-02-15T16:37:55;94859.00;;;15.96;43.38
83122;BME280;73002;47.238;9.006;2024-02-15T16:40:21;94852.19;;;15.77;43.11
83122;BME280;73002;47.238;9.006;2024-02-15T16:42:52;94859.09;;;15.90;41.98
83122;BME280;73002;47.238;9.006;2024-02-15T16:45:18;94847.44;;;15.86;42.87
83122;BME280;73002;47.238;9.006;2024-02-15T16:47:44;94862.44;;;15.97;42.13
83122;BME280;73002;47.238;9.006;2024-02-15T16:50:23;94847.50;;;15.79;42.39
83122;BME280;73002;47.238;9.006;2024-02-15T16:52:49;94851.97;;;15.78;43.31
83122;BME280;73002;47.238;9.006;2024-02-15T16:55:15;94853.63;;;15.91;42.46
83122;BME280;73002;47.238;9.006;2024-02-15T16:57:42;94843.97;;;15.67;42.48
83122;BME280;73002;47.238;9.006;2024-02-15T17:00:07;94847.38;;;15.74;42.53
83122;BME280;73002;47.238;9.006;2024-02-15T17:02:40;94860.38;;;15.62;42.51
83122;BME280;73002;47.238;9.006;2024-02-15T17:05:06;94860.59;;;15.60;43.16
83122;BME280;73002;47.238;9.006;2024-02-15T17:07:35;94842.81;;;15.62;43.47
83122;BME280;73002;47.238;9.006;2024-02-15T17:10:04;94851.72;;;15.61;42.93
83122;BME280;73002;47.238;9.006;2024-02-15T17:12:30;94843.28;;;15.59;42.39
83122;BME280;73002;47.238;9.006;2024-02-15T17:14:56;94847.38;;;15.74;42.08
83122;BME280;73002;47.238;9.006;2024-02-15T17:17:21;94847.28;;;15.18;44.00
83122;BME280;73002;47.238;9.006;2024-02-15T17:19:47;94854.97;;;15.13;44.24
83122;BME280;73002;47.238;9.006;2024-02-15T17:22:14;94849.59;;;15.27;44.33
83122;BME280;73002;47.238;9.006;2024-02-15T17:24:41;94851.47;;;15.44;45.25
83122;BME280;73002;47.238;9.006;2024-02-15T17:27:09;94843.16;;;15.48;46.08
83122;BME280;73002;47.238;9.006;2024-02-15T17:29:35;94848.19;;;15.49;44.46
83122;BME280;73002;47.238;9.006;2024-02-15T17:32:00;94843.66;;;15.38;44.96
83122;BME280;73002;47.238;9.006;2024-02-15T17:34:26;94846.50;;;15.36;44.42
83122;BME280;73002;47.238;9.006;2024-02-15T17:36:52;94854.22;;;15.50;43.81
83122;BME280;73002;47.238;9.006;2024-02-15T17:39:18;94847.09;;;15.57;43.55
83122;BME280;73002;47.238;9.006;2024-02-15T17:41:43;94856.84;;;15.31;44.54
83122;BME280;73002;47.238;9.006;2024-02-15T17:44:13;94854.84;;;15.27;44.66
83122;BME280;73002;47.238;9.006;2024-02-15T17:46:38;94844.38;;;15.27;45.30
83122;BME280;73002;47.238;9.006;2024-02-15T17:49:04;94857.78;;;15.37;45.97
83122;BME280;73002;47.238;9.006;2024-02-15T17:51:33;94862.75;;;15.45;46.01
83122;BME280;73002;47.238;9.006;2024-02-15T17:53:58;94851.09;;;15.41;45.58
83122;BME280;73002;47.238;9.006;2024-02-15T17:56:27;94861.16;;;15.44;45.43
83122;BME280;73002;47.238;9.006;2024-02-15T17:58:52;94862.44;;;15.35;45.10
83122;BME280;73002;47.238;9.006;2024-02-15T18:01:18;94861.28;;;15.31;45.05
83122;BME280;73002;47.238;9.006;2024-02-15T18:06:24;94874.38;;;15.31;44.55
83122;BME280;73002;47.238;9.006;2024-02-15T18:08:49;94862.34;;;14.98;45.95
83122;BME280;73002;47.238;9.006;2024-02-15T18:11:16;94870.56;;;14.76;46.75
83122;BME280;73002;47.238;9.006;2024-02-15T18:13:41;94872.41;;;14.69;46.61
83122;BME280;73002;47.238;9.006;2024-02-15T18:16:07;94869.06;;;14.55;46.71
83122;BME280;73002;47.238;9.006;2024-02-15T18:18:32;94883.34;;;14.59;46.43
83122;BME280;73002;47.238;9.006;2024-02-15T18:20:58;94883.00;;;14.49;46.29
83122;BME280;73002;47.238;9.006;2024-02-15T18:23:24;94881.44;;;14.41;45.86